sensor_id;sensor_type;location;lat;lon;timestamp;P1;durP1;ratioP1;P2;durP2;ratioP2
51660;SDS011;37741;49.748;8.490;2023-07-31T00:00:54;3.40;;;1.30;;
51660;SDS011;37741;49.748;8.490;2023-07-31T00:03:23;3.50;;;1.60;;
51660;SDS011;37741;49.748;8.490;2023-07-31T00:05:48;2.20;;;1.05;;
51660;SDS011;37741;49.748;8.490;2023-07-31T00:08:14;3.08;;;1.25;;
51660;SDS011;37741;49.748;8.490;2023-07-31T00:10:43;2.22;;;0.90;;
51660;SDS011;37741;49.748;8.490;2023-07-31T00:13:10;3.10;;;1.92;;
51660;SDS011;37741;49.748;8.490;2023-07-31T00:15:35;4.45;;;1.25;;
51660;SDS011;37741;49.748;8.490;2023-07-31T00:18:01;3.38;;;1.20;;
51660;SDS011;37741;49.748;8.490;2023-07-31T00:20:26;3.50;;;1.20;;
51660;SDS011;37741;49.748;8.490;2023-07-31T00:22:52;4.05;;;1.73;;
51660;SDS011;37741;49.748;8.490;2023-07-31T00:25:17;2.97;;;1.20;;
51660;SDS011;37741;49.748;8.490;2023-07-31T00:27:43;3.55;;;1.38;;
51660;SDS011;37741;49.748;8.490;2023-07-31T00:30:14;5.90;;;1.48;;
51660;SDS011;37741;49.748;8.490;2023-07-31T00:32:41;4.95;;;2.30;;
51660;SDS011;37741;49.748;8.490;2023-07-31T00:35:06;3.42;;;1.20;;
51660;SDS011;37741;49.748;8.490;2023-07-31T00:37:39;2.78;;;1.50;;
51660;SDS011;37741;49.748;8.490;2023-07-31T00:40:04;2.92;;;1.00;;
51660;SDS011;37741;49.748;8.490;2023-07-31T00:42:30;3.65;;;1.50;;
51660;SDS011;37741;49.748;8.490;2023-07-31T00:44:56;3.22;;;1.23;;
51660;SDS011;37741;49.748;8.490;2023-07-31T00:47:23;2.35;;;1.17;;
51660;SDS011;37741;49.748;8.490;2023-07-31T00:49:49;3.15;;;1.30;;
51660;SDS011;37741;49.748;8.490;2023-07-31T00:52:14;2.45;;;1.10;;
51660;SDS011;37741;49.748;8.490;2023-07-31T00:54:41;3.40;;;1.60;;
51660;SDS011;37741;49.748;8.490;2023-07-31T00:57:10;2.63;;;1.42;;
51660;SDS011;37741;49.748;8.490;2023-07-31T00:59:36;3.13;;;1.08;;
51660;SDS011;37741;49.748;8.490;2023-07-31T01:02:01;3.28;;;1.20;;
51660;SDS011;37741;49.748;8.490;2023-07-31T01:04:44;3.45;;;1.48;;
51660;SDS011;37741;49.748;8.490;2023-07-31T01:07:56;5.93;;;1.45;;
51660;SDS011;37741;49.748;8.490;2023-07-31T01:10:16;3.00;;;1.20;;
51660;SDS011;37741;49.748;8.490;2023-07-31T01:12:46;3.10;;;1.30;;
51660;SDS011;37741;49.748;8.490;2023-07-31T01:15:13;3.13;;;2.03;;
51660;SDS011;37741;49.748;8.490;2023-07-31T01:17:41;3.25;;;1.15;;
51660;SDS011;37741;49.748;8.490;2023-07-31T01:20:11;2.85;;;1.13;;
51660;SDS011;37741;49.748;8.490;2023-07-31T01:28:37;2.33;;;1.20;;
51660;SDS011;37741;49.748;8.490;2023-07-31T01:33:39;3.00;;;1.40;;
51660;SDS011;37741;49.748;8.490;2023-07-31T01:36:05;2.28;;;1.10;;
51660;SDS011;37741;49.748;8.490;2023-07-31T01:38:32;3.25;;;1.40;;
51660;SDS011;37741;49.748;8.490;2023-07-31T01:40:58;3.88;;;1.45;;
51660;SDS011;37741;49.748;8.490;2023-07-31T01:43:25;5.43;;;1.90;;
51660;SDS011;37741;49.748;8.490;2023-07-31T01:45:51;4.28;;;1.52;;
51660;SDS011;37741;49.748;8.490;2023-07-31T01:48:20;2.97;;;1.60;;
51660;SDS011;37741;49.748;8.490;2023-07-31T01:50:49;2.90;;;1.45;;
51660;SDS011;37741;49.748;8.490;2023-07-31T01:53:20;3.25;;;1.55;;
51660;SDS011;37741;49.748;8.490;2023-07-31T01:55:47;5.28;;;1.60;;
51660;SDS011;37741;49.748;8.490;2023-07-31T01:58:12;3.63;;;1.50;;
51660;SDS011;37741;49.748;8.490;2023-07-31T02:00:41;3.15;;;1.35;;
51660;SDS011;37741;49.748;8.490;2023-07-31T02:03:06;4.35;;;1.88;;
51660;SDS011;37741;49.748;8.490;2023-07-31T02:06:05;3.53;;;1.52;;
51660;SDS011;37741;49.748;8.490;2023-07-31T02:08:24;4.13;;;1.70;;
51660;SDS011;37741;49.748;8.490;2023-07-31T02:10:50;3.50;;;1.33;;
51660;SDS011;37741;49.748;8.490;2023-07-31T02:13:16;3.38;;;1.45;;
51660;SDS011;37741;49.748;8.490;2023-07-31T02:15:41;3.20;;;1.58;;
51660;SDS011;37741;49.748;8.490;2023-07-31T02:18:07;3.58;;;1.60;;
51660;SDS011;37741;49.748;8.490;2023-07-31T02:20:34;5.82;;;1.50;;
51660;SDS011;37741;49.748;8.490;2023-07-31T02:23:00;4.38;;;1.65;;
51660;SDS011;37741;49.748;8.490;2023-07-31T02:25:26;3.80;;;1.60;;
51660;SDS011;37741;49.748;8.490;2023-07-31T02:27:51;4.35;;;1.80;;
51660;SDS011;37741;49.748;8.490;2023-07-31T02:30:21;5.03;;;1.70;;
51660;SDS011;37741;49.748;8.490;2023-07-31T02:32:47;3.45;;;1.60;;
51660;SDS011;37741;49.748;8.490;2023-07-31T02:35:12;3.80;;;1.40;;
51660;SDS011;37741;49.748;8.490;2023-07-31T02:37:41;4.68;;;1.85;;
51660;SDS011;37741;49.748;8.490;2023-07-31T02:40:07;4.00;;;1.70;;
51660;SDS011;37741;49.748;8.490;2023-07-31T02:42:33;3.92;;;1.63;;
51660;SDS011;37741;49.748;8.490;2023-07-31T02:44:59;2.55;;;1.23;;
51660;SDS011;37741;49.748;8.490;2023-07-31T02:47:25;3.47;;;1.60;;
51660;SDS011;37741;49.748;8.490;2023-07-31T02:49:52;2.83;;;1.40;;
51660;SDS011;37741;49.748;8.490;2023-07-31T02:52:17;5.78;;;2.60;;
51660;SDS011;37741;49.748;8.490;2023-07-31T02:54:45;3.47;;;1.40;;
51660;SDS011;37741;49.748;8.490;2023-07-31T02:57:10;3.88;;;1.60;;
51660;SDS011;37741;49.748;8.490;2023-07-31T02:59:36;4.05;;;2.10;;
51660;SDS011;37741;49.748;8.490;2023-07-31T03:02:01;4.68;;;1.90;;
51660;SDS011;37741;49.748;8.490;2023-07-31T03:04:27;3.80;;;1.85;;
51660;SDS011;37741;49.748;8.490;2023-07-31T03:06:53;5.25;;;2.00;;
51660;SDS011;37741;49.748;8.490;2023-07-31T03:09:18;3.97;;;1.90;;
51660;SDS011;37741;49.748;8.490;2023-07-31T03:11:45;3.53;;;1.65;;
51660;SDS011;37741;49.748;8.490;2023-07-31T03:14:11;4.57;;;1.70;;
51660;SDS011;37741;49.748;8.490;2023-07-31T03:16:37;4.68;;;1.83;;
51660;SDS011;37741;49.748;8.490;2023-07-31T03:19:02;3.75;;;1.60;;
51660;SDS011;37741;49.748;8.490;2023-07-31T03:21:28;4.03;;;1.70;;
51660;SDS011;37741;49.748;8.490;2023-07-31T03:24:02;3.88;;;1.85;;
51660;SDS011;37741;49.748;8.490;2023-07-31T03:26:31;4.55;;;1.70;;
51660;SDS011;37741;49.748;8.490;2023-07-31T03:28:57;5.07;;;1.95;;
51660;SDS011;37741;49.748;8.490;2023-07-31T03:31:30;3.30;;;1.52;;
51660;SDS011;37741;49.748;8.490;2023-07-31T03:33:56;5.45;;;2.20;;
51660;SDS011;37741;49.748;8.490;2023-07-31T03:36:22;4.47;;;1.73;;
51660;SDS011;37741;49.748;8.490;2023-07-31T03:38:48;4.65;;;1.77;;
51660;SDS011;37741;49.748;8.490;2023-07-31T03:41:21;4.60;;;1.95;;
51660;SDS011;37741;49.748;8.490;2023-07-31T03:43:54;3.90;;;1.92;;
51660;SDS011;37741;49.748;8.490;2023-07-31T03:46:23;2.75;;;1.40;;
51660;SDS011;37741;49.748;8.490;2023-07-31T03:49:05;3.83;;;1.50;;
51660;SDS011;37741;49.748;8.490;2023-07-31T03:51:30;4.15;;;1.58;;
51660;SDS011;37741;49.748;8.490;2023-07-31T03:53:56;3.53;;;1.20;;
51660;SDS011;37741;49.748;8.490;2023-07-31T03:56:23;2.55;;;1.50;;
51660;SDS011;37741;49.748;8.490;2023-07-31T03:58:48;4.03;;;2.30;;
51660;SDS011;37741;49.748;8.490;2023-07-31T04:01:14;5.65;;;2.08;;
51660;SDS011;37741;49.748;8.490;2023-07-31T04:03:40;2.92;;;1.50;;
51660;SDS011;37741;49.748;8.490;2023-07-31T04:06:05;3.85;;;1.60;;
51660;SDS011;37741;49.748;8.490;2023-07-31T04:08:34;3.90;;;1.48;;
51660;SDS011;37741;49.748;8.490;2023-07-31T04:10:59;5.80;;;1.80;;
51660;SDS011;37741;49.748;8.490;2023-07-31T04:13:25;3.13;;;1.50;;
51660;SDS011;37741;49.748;8.490;2023-07-31T04:15:54;4.40;;;1.80;;
51660;SDS011;37741;49.748;8.490;2023-07-31T04:18:21;4.78;;;2.10;;
51660;SDS011;37741;49.748;8.490;2023-07-31T04:20:46;4.38;;;1.50;;
51660;SDS011;37741;49.748;8.490;2023-07-31T04:23:20;5.43;;;1.85;;
51660;SDS011;37741;49.748;8.490;2023-07-31T04:25:46;3.55;;;1.88;;
51660;SDS011;37741;49.748;8.490;2023-07-31T04:28:12;3.83;;;1.58;;
51660;SDS011;37741;49.748;8.490;2023-07-31T04:30:39;3.80;;;1.70;;
51660;SDS011;37741;49.748;8.490;2023-07-31T04:33:04;2.97;;;1.77;;
51660;SDS011;37741;49.748;8.490;2023-07-31T04:35:30;4.35;;;1.48;;
51660;SDS011;37741;49.748;8.490;2023-07-31T04:37:55;5.60;;;1.95;;
51660;SDS011;37741;49.748;8.490;2023-07-31T04:40:21;3.85;;;1.85;;
51660;SDS011;37741;49.748;8.490;2023-07-31T04:42:46;3.63;;;1.80;;
51660;SDS011;37741;49.748;8.490;2023-07-31T04:45:12;2.47;;;1.30;;
51660;SDS011;37741;49.748;8.490;2023-07-31T04:47:45;4.20;;;1.95;;
51660;SDS011;37741;49.748;8.490;2023-07-31T04:50:10;3.85;;;1.77;;
51660;SDS011;37741;49.748;8.490;2023-07-31T04:52:36;3.00;;;1.67;;
51660;SDS011;37741;49.748;8.490;2023-07-31T04:55:02;3.72;;;1.75;;
51660;SDS011;37741;49.748;8.490;2023-07-31T04:57:30;3.78;;;1.73;;
51660;SDS011;37741;49.748;8.490;2023-07-31T04:59:56;4.00;;;1.63;;
51660;SDS011;37741;49.748;8.490;2023-07-31T05:02:21;3.28;;;1.63;;
51660;SDS011;37741;49.748;8.490;2023-07-31T05:04:47;6.18;;;2.03;;
51660;SDS011;37741;49.748;8.490;2023-07-31T05:07:15;4.22;;;1.80;;
51660;SDS011;37741;49.748;8.490;2023-07-31T05:09:42;2.95;;;1.67;;
51660;SDS011;37741;49.748;8.490;2023-07-31T05:12:07;5.45;;;1.63;;
51660;SDS011;37741;49.748;8.490;2023-07-31T05:14:39;6.45;;;2.05;;
51660;SDS011;37741;49.748;8.490;2023-07-31T05:17:06;3.60;;;1.40;;
51660;SDS011;37741;49.748;8.490;2023-07-31T05:19:35;4.32;;;2.13;;
51660;SDS011;37741;49.748;8.490;2023-07-31T05:22:03;4.28;;;1.58;;
51660;SDS011;37741;49.748;8.490;2023-07-31T05:24:33;3.95;;;1.85;;
51660;SDS011;37741;49.748;8.490;2023-07-31T05:27:05;3.63;;;1.70;;
51660;SDS011;37741;49.748;8.490;2023-07-31T05:29:31;3.10;;;1.63;;
51660;SDS011;37741;49.748;8.490;2023-07-31T05:31:58;4.40;;;1.70;;
51660;SDS011;37741;49.748;8.490;2023-07-31T05:34:27;3.58;;;1.45;;
51660;SDS011;37741;49.748;8.490;2023-07-31T05:36:53;5.22;;;2.03;;
51660;SDS011;37741;49.748;8.490;2023-07-31T05:39:24;3.65;;;1.77;;
51660;SDS011;37741;49.748;8.490;2023-07-31T05:41:49;4.15;;;2.00;;
51660;SDS011;37741;49.748;8.490;2023-07-31T05:44:16;3.70;;;2.00;;
51660;SDS011;37741;49.748;8.490;2023-07-31T05:46:42;5.22;;;1.90;;
51660;SDS011;37741;49.748;8.490;2023-07-31T05:49:09;4.78;;;1.83;;
51660;SDS011;37741;49.748;8.490;2023-07-31T05:51:34;4.40;;;2.00;;
51660;SDS011;37741;49.748;8.490;2023-07-31T05:54:02;5.63;;;1.92;;
51660;SDS011;37741;49.748;8.490;2023-07-31T05:56:28;3.92;;;1.98;;
51660;SDS011;37741;49.748;8.490;2023-07-31T05:58:54;6.72;;;2.08;;
51660;SDS011;37741;49.748;8.490;2023-07-31T06:01:25;4.13;;;2.13;;
51660;SDS011;37741;49.748;8.490;2023-07-31T06:03:59;6.85;;;2.13;;
51660;SDS011;37741;49.748;8.490;2023-07-31T06:06:25;5.43;;;1.90;;
51660;SDS011;37741;49.748;8.490;2023-07-31T06:08:54;5.15;;;1.83;;
51660;SDS011;37741;49.748;8.490;2023-07-31T06:11:21;4.30;;;2.00;;
51660;SDS011;37741;49.748;8.490;2023-07-31T06:13:47;4.40;;;1.90;;
51660;SDS011;37741;49.748;8.490;2023-07-31T06:16:17;3.58;;;1.77;;
51660;SDS011;37741;49.748;8.490;2023-07-31T06:18:48;3.75;;;2.10;;
51660;SDS011;37741;49.748;8.490;2023-07-31T06:21:14;3.75;;;2.03;;
51660;SDS011;37741;49.748;8.490;2023-07-31T06:23:52;6.53;;;2.83;;
51660;SDS011;37741;49.748;8.490;2023-07-31T06:26:18;5.25;;;2.22;;
51660;SDS011;37741;49.748;8.490;2023-07-31T06:29:06;4.18;;;1.98;;
51660;SDS011;37741;49.748;8.490;2023-07-31T06:31:32;3.60;;;1.95;;
51660;SDS011;37741;49.748;8.490;2023-07-31T06:33:59;3.65;;;1.83;;
51660;SDS011;37741;49.748;8.490;2023-07-31T06:36:26;3.80;;;1.85;;
51660;SDS011;37741;49.748;8.490;2023-07-31T06:38:52;3.58;;;1.80;;
51660;SDS011;37741;49.748;8.490;2023-07-31T06:41:18;3.28;;;1.50;;
51660;SDS011;37741;49.748;8.490;2023-07-31T06:43:44;4.13;;;1.95;;
51660;SDS011;37741;49.748;8.490;2023-07-31T06:46:11;3.55;;;2.05;;
51660;SDS011;37741;49.748;8.490;2023-07-31T06:48:38;5.07;;;1.90;;
51660;SDS011;37741;49.748;8.490;2023-07-31T06:51:04;4.38;;;2.08;;
51660;SDS011;37741;49.748;8.490;2023-07-31T06:53:30;3.92;;;2.25;;
51660;SDS011;37741;49.748;8.490;2023-07-31T06:55:55;4.18;;;1.88;;
51660;SDS011;37741;49.748;8.490;2023-07-31T06:58:21;3.83;;;1.67;;
51660;SDS011;37741;49.748;8.490;2023-07-31T07:00:48;3.42;;;1.70;;
51660;SDS011;37741;49.748;8.490;2023-07-31T07:03:18;4.40;;;2.10;;
51660;SDS011;37741;49.748;8.490;2023-07-31T07:05:45;3.83;;;1.90;;
51660;SDS011;37741;49.748;8.490;2023-07-31T07:08:11;4.07;;;2.45;;
51660;SDS011;37741;49.748;8.490;2023-07-31T07:10:38;4.78;;;2.13;;
51660;SDS011;37741;49.748;8.490;2023-07-31T07:13:17;3.13;;;1.70;;
51660;SDS011;37741;49.748;8.490;2023-07-31T07:15:49;6.03;;;2.15;;
51660;SDS011;37741;49.748;8.490;2023-07-31T07:18:16;4.45;;;1.90;;
51660;SDS011;37741;49.748;8.490;2023-07-31T07:20:47;3.50;;;1.77;;
51660;SDS011;37741;49.748;8.490;2023-07-31T07:23:16;4.78;;;1.83;;
51660;SDS011;37741;49.748;8.490;2023-07-31T07:25:46;5.63;;;2.53;;
51660;SDS011;37741;49.748;8.490;2023-07-31T07:28:13;4.45;;;1.92;;
51660;SDS011;37741;49.748;8.490;2023-07-31T07:30:39;4.45;;;1.90;;
51660;SDS011;37741;49.748;8.490;2023-07-31T07:33:05;4.63;;;2.25;;
51660;SDS011;37741;49.748;8.490;2023-07-31T07:35:35;8.55;;;2.10;;
51660;SDS011;37741;49.748;8.490;2023-07-31T07:38:02;4.13;;;2.10;;
51660;SDS011;37741;49.748;8.490;2023-07-31T07:40:28;7.43;;;2.45;;
51660;SDS011;37741;49.748;8.490;2023-07-31T07:42:57;7.47;;;2.38;;
51660;SDS011;37741;49.748;8.490;2023-07-31T07:45:28;6.55;;;2.38;;
51660;SDS011;37741;49.748;8.490;2023-07-31T07:47:58;6.90;;;2.10;;
51660;SDS011;37741;49.748;8.490;2023-07-31T07:50:24;3.15;;;1.70;;
51660;SDS011;37741;49.748;8.490;2023-07-31T07:52:50;4.18;;;1.98;;
51660;SDS011;37741;49.748;8.490;2023-07-31T07:55:16;3.95;;;2.28;;
51660;SDS011;37741;49.748;8.490;2023-07-31T07:57:42;5.93;;;2.17;;
51660;SDS011;37741;49.748;8.490;2023-07-31T08:00:11;5.30;;;2.30;;
51660;SDS011;37741;49.748;8.490;2023-07-31T08:02:46;4.72;;;2.10;;
51660;SDS011;37741;49.748;8.490;2023-07-31T08:05:12;5.05;;;2.72;;
51660;SDS011;37741;49.748;8.490;2023-07-31T08:07:39;4.45;;;1.92;;
51660;SDS011;37741;49.748;8.490;2023-07-31T08:10:11;4.95;;;1.80;;
51660;SDS011;37741;49.748;8.490;2023-07-31T08:12:38;3.88;;;1.90;;
51660;SDS011;37741;49.748;8.490;2023-07-31T08:15:05;5.03;;;1.92;;
51660;SDS011;37741;49.748;8.490;2023-07-31T08:17:31;6.78;;;2.75;;
51660;SDS011;37741;49.748;8.490;2023-07-31T08:19:57;3.97;;;1.95;;
51660;SDS011;37741;49.748;8.490;2023-07-31T08:22:23;3.42;;;1.95;;
51660;SDS011;37741;49.748;8.490;2023-07-31T08:24:49;6.15;;;2.55;;
51660;SDS011;37741;49.748;8.490;2023-07-31T08:27:15;4.30;;;2.20;;
51660;SDS011;37741;49.748;8.490;2023-07-31T08:29:40;5.75;;;1.92;;
51660;SDS011;37741;49.748;8.490;2023-07-31T08:32:08;5.13;;;2.17;;
51660;SDS011;37741;49.748;8.490;2023-07-31T08:34:38;3.72;;;1.92;;
51660;SDS011;37741;49.748;8.490;2023-07-31T08:37:03;4.00;;;2.30;;
51660;SDS011;37741;49.748;8.490;2023-07-31T08:39:29;3.00;;;1.67;;
51660;SDS011;37741;49.748;8.490;2023-07-31T08:41:58;3.33;;;1.83;;
51660;SDS011;37741;49.748;8.490;2023-07-31T08:44:49;7.15;;;2.30;;
51660;SDS011;37741;49.748;8.490;2023-07-31T08:47:16;9.45;;;2.58;;
51660;SDS011;37741;49.748;8.490;2023-07-31T08:49:43;5.43;;;2.28;;
51660;SDS011;37741;49.748;8.490;2023-07-31T08:52:12;6.90;;;2.30;;
51660;SDS011;37741;49.748;8.490;2023-07-31T08:54:38;4.15;;;1.92;;
51660;SDS011;37741;49.748;8.490;2023-07-31T08:57:08;4.30;;;2.58;;
51660;SDS011;37741;49.748;8.490;2023-07-31T08:59:37;4.40;;;2.00;;
51660;SDS011;37741;49.748;8.490;2023-07-31T09:02:07;5.03;;;1.92;;
51660;SDS011;37741;49.748;8.490;2023-07-31T09:04:34;4.85;;;1.92;;
51660;SDS011;37741;49.748;8.490;2023-07-31T09:07:00;6.07;;;2.40;;
51660;SDS011;37741;49.748;8.490;2023-07-31T09:09:32;4.55;;;2.08;;
51660;SDS011;37741;49.748;8.490;2023-07-31T09:12:15;3.90;;;2.05;;
51660;SDS011;37741;49.748;8.490;2023-07-31T09:14:42;4.22;;;2.03;;
51660;SDS011;37741;49.748;8.490;2023-07-31T09:17:14;4.95;;;2.30;;
51660;SDS011;37741;49.748;8.490;2023-07-31T09:19:43;4.97;;;2.00;;
51660;SDS011;37741;49.748;8.490;2023-07-31T09:22:09;4.38;;;2.10;;
51660;SDS011;37741;49.748;8.490;2023-07-31T09:24:34;4.18;;;2.40;;
51660;SDS011;37741;49.748;8.490;2023-07-31T09:27:01;4.13;;;2.00;;
51660;SDS011;37741;49.748;8.490;2023-07-31T09:29:29;4.75;;;2.40;;
51660;SDS011;37741;49.748;8.490;2023-07-31T09:32:04;5.32;;;1.90;;
51660;SDS011;37741;49.748;8.490;2023-07-31T09:34:30;5.53;;;2.05;;
51660;SDS011;37741;49.748;8.490;2023-07-31T09:37:04;5.60;;;2.55;;
51660;SDS011;37741;49.748;8.490;2023-07-31T09:39:30;3.88;;;2.15;;
51660;SDS011;37741;49.748;8.490;2023-07-31T09:42:10;4.63;;;1.92;;
51660;SDS011;37741;49.748;8.490;2023-07-31T09:44:43;7.32;;;2.28;;
51660;SDS011;37741;49.748;8.490;2023-07-31T09:47:44;7.65;;;2.35;;
51660;SDS011;37741;49.748;8.490;2023-07-31T09:50:05;6.00;;;2.35;;
51660;SDS011;37741;49.748;8.490;2023-07-31T09:52:38;3.88;;;2.28;;
51660;SDS011;37741;49.748;8.490;2023-07-31T09:55:04;4.47;;;2.55;;
51660;SDS011;37741;49.748;8.490;2023-07-31T09:57:30;5.50;;;2.33;;
51660;SDS011;37741;49.748;8.490;2023-07-31T09:59:59;4.00;;;2.05;;
51660;SDS011;37741;49.748;8.490;2023-07-31T10:02:27;3.75;;;2.30;;
51660;SDS011;37741;49.748;8.490;2023-07-31T10:04:55;7.10;;;2.53;;
51660;SDS011;37741;49.748;8.490;2023-07-31T10:07:23;5.00;;;2.08;;
51660;SDS011;37741;49.748;8.490;2023-07-31T10:10:00;4.00;;;2.10;;
51660;SDS011;37741;49.748;8.490;2023-07-31T10:12:27;6.20;;;2.70;;
51660;SDS011;37741;49.748;8.490;2023-07-31T10:14:53;5.70;;;3.40;;
51660;SDS011;37741;49.748;8.490;2023-07-31T10:17:21;4.60;;;1.98;;
51660;SDS011;37741;49.748;8.490;2023-07-31T10:19:48;6.50;;;2.00;;
51660;SDS011;37741;49.748;8.490;2023-07-31T10:22:16;6.28;;;2.25;;
51660;SDS011;37741;49.748;8.490;2023-07-31T10:24:43;5.57;;;2.63;;
51660;SDS011;37741;49.748;8.490;2023-07-31T10:27:11;3.78;;;2.30;;
51660;SDS011;37741;49.748;8.490;2023-07-31T10:29:41;4.50;;;2.40;;
51660;SDS011;37741;49.748;8.490;2023-07-31T10:32:10;5.45;;;2.55;;
51660;SDS011;37741;49.748;8.490;2023-07-31T10:34:42;5.22;;;2.53;;
51660;SDS011;37741;49.748;8.490;2023-07-31T10:40:03;4.90;;;2.65;;
51660;SDS011;37741;49.748;8.490;2023-07-31T10:45:05;6.18;;;2.53;;
51660;SDS011;37741;49.748;8.490;2023-07-31T10:47:38;4.93;;;2.40;;
51660;SDS011;37741;49.748;8.490;2023-07-31T10:50:20;5.22;;;2.22;;
51660;SDS011;37741;49.748;8.490;2023-07-31T10:52:55;4.18;;;2.50;;
51660;SDS011;37741;49.748;8.490;2023-07-31T10:58:07;5.32;;;2.83;;
51660;SDS011;37741;49.748;8.490;2023-07-31T11:00:36;5.68;;;2.83;;
51660;SDS011;37741;49.748;8.490;2023-07-31T11:03:06;5.63;;;2.42;;
51660;SDS011;37741;49.748;8.490;2023-07-31T11:05:48;7.35;;;2.70;;
51660;SDS011;37741;49.748;8.490;2023-07-31T11:11:08;4.35;;;2.17;;
51660;SDS011;37741;49.748;8.490;2023-07-31T11:13:45;4.43;;;2.05;;
51660;SDS011;37741;49.748;8.490;2023-07-31T11:16:23;6.72;;;2.95;;
51660;SDS011;37741;49.748;8.490;2023-07-31T11:18:50;3.78;;;2.30;;
51660;SDS011;37741;49.748;8.490;2023-07-31T11:21:25;5.25;;;2.92;;
51660;SDS011;37741;49.748;8.490;2023-07-31T11:23:52;3.80;;;2.42;;
51660;SDS011;37741;49.748;8.490;2023-07-31T11:26:19;4.43;;;2.10;;
51660;SDS011;37741;49.748;8.490;2023-07-31T11:28:53;4.50;;;2.35;;
51660;SDS011;37741;49.748;8.490;2023-07-31T11:31:19;5.32;;;2.20;;
51660;SDS011;37741;49.748;8.490;2023-07-31T11:33:46;6.70;;;2.40;;
51660;SDS011;37741;49.748;8.490;2023-07-31T11:36:33;5.43;;;2.80;;
51660;SDS011;37741;49.748;8.490;2023-07-31T11:39:06;5.10;;;2.50;;
51660;SDS011;37741;49.748;8.490;2023-07-31T11:41:34;4.20;;;2.30;;
51660;SDS011;37741;49.748;8.490;2023-07-31T11:44:00;3.75;;;2.10;;
51660;SDS011;37741;49.748;8.490;2023-07-31T11:46:26;4.60;;;2.65;;
51660;SDS011;37741;49.748;8.490;2023-07-31T11:48:59;4.07;;;2.05;;
51660;SDS011;37741;49.748;8.490;2023-07-31T11:51:28;3.72;;;2.60;;
51660;SDS011;37741;49.748;8.490;2023-07-31T11:53:56;4.95;;;2.35;;
51660;SDS011;37741;49.748;8.490;2023-07-31T11:56:25;4.90;;;2.40;;
51660;SDS011;37741;49.748;8.490;2023-07-31T11:58:57;5.07;;;2.60;;
51660;SDS011;37741;49.748;8.490;2023-07-31T12:01:24;6.72;;;2.30;;
51660;SDS011;37741;49.748;8.490;2023-07-31T12:03:52;3.97;;;2.15;;
51660;SDS011;37741;49.748;8.490;2023-07-31T12:06:19;3.55;;;2.00;;
51660;SDS011;37741;49.748;8.490;2023-07-31T12:09:00;7.65;;;3.03;;
51660;SDS011;37741;49.748;8.490;2023-07-31T12:11:53;4.15;;;2.40;;
51660;SDS011;37741;49.748;8.490;2023-07-31T12:16:55;5.80;;;2.40;;
51660;SDS011;37741;49.748;8.490;2023-07-31T12:19:24;5.22;;;2.30;;
51660;SDS011;37741;49.748;8.490;2023-07-31T12:21:56;4.95;;;2.63;;
51660;SDS011;37741;49.748;8.490;2023-07-31T12:24:23;5.88;;;2.83;;
51660;SDS011;37741;49.748;8.490;2023-07-31T12:26:48;5.25;;;2.17;;
51660;SDS011;37741;49.748;8.490;2023-07-31T12:29:14;4.88;;;2.85;;
51660;SDS011;37741;49.748;8.490;2023-07-31T12:31:41;7.75;;;2.50;;
51660;SDS011;37741;49.748;8.490;2023-07-31T12:34:19;4.10;;;2.20;;
51660;SDS011;37741;49.748;8.490;2023-07-31T12:36:46;5.75;;;3.05;;
51660;SDS011;37741;49.748;8.490;2023-07-31T12:39:15;3.92;;;2.38;;
51660;SDS011;37741;49.748;8.490;2023-07-31T12:41:44;6.90;;;2.53;;
51660;SDS011;37741;49.748;8.490;2023-07-31T12:44:09;4.07;;;2.35;;
51660;SDS011;37741;49.748;8.490;2023-07-31T12:46:38;3.38;;;2.05;;
51660;SDS011;37741;49.748;8.490;2023-07-31T12:49:04;6.43;;;2.47;;
51660;SDS011;37741;49.748;8.490;2023-07-31T12:51:29;6.20;;;2.65;;
51660;SDS011;37741;49.748;8.490;2023-07-31T12:53:55;6.07;;;2.33;;
51660;SDS011;37741;49.748;8.490;2023-07-31T12:56:21;5.25;;;2.60;;
51660;SDS011;37741;49.748;8.490;2023-07-31T12:58:46;6.95;;;2.90;;
51660;SDS011;37741;49.748;8.490;2023-07-31T13:01:12;4.57;;;2.80;;
51660;SDS011;37741;49.748;8.490;2023-07-31T13:03:37;3.72;;;2.17;;
51660;SDS011;37741;49.748;8.490;2023-07-31T13:06:03;5.57;;;2.80;;
51660;SDS011;37741;49.748;8.490;2023-07-31T13:08:30;6.20;;;2.53;;
51660;SDS011;37741;49.748;8.490;2023-07-31T13:10:59;6.70;;;2.83;;
51660;SDS011;37741;49.748;8.490;2023-07-31T13:13:24;4.78;;;2.30;;
51660;SDS011;37741;49.748;8.490;2023-07-31T13:15:50;4.53;;;2.72;;
51660;SDS011;37741;49.748;8.490;2023-07-31T13:18:17;7.07;;;2.45;;
51660;SDS011;37741;49.748;8.490;2023-07-31T13:20:42;4.47;;;1.88;;
51660;SDS011;37741;49.748;8.490;2023-07-31T13:23:08;5.35;;;2.28;;
51660;SDS011;37741;49.748;8.490;2023-07-31T13:25:43;4.70;;;2.38;;
51660;SDS011;37741;49.748;8.490;2023-07-31T13:28:18;4.03;;;2.10;;
51660;SDS011;37741;49.748;8.490;2023-07-31T13:30:43;4.25;;;2.47;;
51660;SDS011;37741;49.748;8.490;2023-07-31T13:33:09;4.35;;;2.15;;
51660;SDS011;37741;49.748;8.490;2023-07-31T13:35:35;3.72;;;2.17;;
51660;SDS011;37741;49.748;8.490;2023-07-31T13:38:05;6.03;;;2.28;;
51660;SDS011;37741;49.748;8.490;2023-07-31T13:40:32;4.35;;;2.28;;
51660;SDS011;37741;49.748;8.490;2023-07-31T13:42:57;6.30;;;2.15;;
51660;SDS011;37741;49.748;8.490;2023-07-31T13:45:23;4.38;;;2.60;;
51660;SDS011;37741;49.748;8.490;2023-07-31T13:47:50;4.30;;;2.15;;
51660;SDS011;37741;49.748;8.490;2023-07-31T13:50:16;5.95;;;2.25;;
51660;SDS011;37741;49.748;8.490;2023-07-31T13:52:45;3.97;;;2.15;;
51660;SDS011;37741;49.748;8.490;2023-07-31T13:55:17;3.75;;;2.20;;
51660;SDS011;37741;49.748;8.490;2023-07-31T13:57:43;5.70;;;2.15;;
51660;SDS011;37741;49.748;8.490;2023-07-31T14:00:11;4.72;;;2.50;;
51660;SDS011;37741;49.748;8.490;2023-07-31T14:02:48;3.70;;;2.25;;
51660;SDS011;37741;49.748;8.490;2023-07-31T14:05:18;3.72;;;2.20;;
51660;SDS011;37741;49.748;8.490;2023-07-31T14:07:44;4.65;;;2.20;;
51660;SDS011;37741;49.748;8.490;2023-07-31T14:10:10;3.67;;;2.30;;
51660;SDS011;37741;49.748;8.490;2023-07-31T14:12:35;3.72;;;2.30;;
51660;SDS011;37741;49.748;8.490;2023-07-31T14:15:01;3.88;;;2.17;;
51660;SDS011;37741;49.748;8.490;2023-07-31T14:17:37;4.85;;;2.60;;
51660;SDS011;37741;49.748;8.490;2023-07-31T14:20:03;3.53;;;2.25;;
51660;SDS011;37741;49.748;8.490;2023-07-31T14:22:30;4.15;;;2.08;;
51660;SDS011;37741;49.748;8.490;2023-07-31T14:24:58;3.72;;;2.33;;
51660;SDS011;37741;49.748;8.490;2023-07-31T14:27:23;4.85;;;2.72;;
51660;SDS011;37741;49.748;8.490;2023-07-31T14:29:49;5.07;;;2.80;;
51660;SDS011;37741;49.748;8.490;2023-07-31T14:32:24;7.30;;;2.60;;
51660;SDS011;37741;49.748;8.490;2023-07-31T14:34:50;4.05;;;2.55;;
51660;SDS011;37741;49.748;8.490;2023-07-31T14:37:18;4.50;;;2.33;;
51660;SDS011;37741;49.748;8.490;2023-07-31T14:39:43;5.65;;;2.60;;
51660;SDS011;37741;49.748;8.490;2023-07-31T14:42:15;4.03;;;2.38;;
51660;SDS011;37741;49.748;8.490;2023-07-31T14:44:49;3.50;;;2.35;;
51660;SDS011;37741;49.748;8.490;2023-07-31T14:47:15;4.35;;;2.40;;
51660;SDS011;37741;49.748;8.490;2023-07-31T14:49:51;6.25;;;2.47;;
51660;SDS011;37741;49.748;8.490;2023-07-31T14:52:17;5.10;;;2.40;;
51660;SDS011;37741;49.748;8.490;2023-07-31T14:54:46;5.97;;;2.50;;
51660;SDS011;37741;49.748;8.490;2023-07-31T14:57:12;5.78;;;2.60;;
51660;SDS011;37741;49.748;8.490;2023-07-31T14:59:40;8.43;;;2.35;;
51660;SDS011;37741;49.748;8.490;2023-07-31T15:02:14;5.38;;;2.40;;
51660;SDS011;37741;49.748;8.490;2023-07-31T15:04:58;5.75;;;2.92;;
51660;SDS011;37741;49.748;8.490;2023-07-31T15:07:24;4.38;;;2.33;;
51660;SDS011;37741;49.748;8.490;2023-07-31T15:09:51;5.43;;;2.17;;
51660;SDS011;37741;49.748;8.490;2023-07-31T15:12:18;4.88;;;2.38;;
51660;SDS011;37741;49.748;8.490;2023-07-31T15:14:48;6.90;;;2.92;;
51660;SDS011;37741;49.748;8.490;2023-07-31T15:17:44;4.38;;;2.50;;